Time;durP1;ratioP1;P1;durP2;ratioP2;P2;SDS_P1;SDS_P2;PMS_P1;PMS_P2;Temp;Humidity;BMP_temperature;BMP_pressure;BME280_temperature;BME280_humidity;BME280_pressure;Samples;Min_cycle;Max_cycle;Signal;HPM_P1;HPM_P2
2023/10/18 00:01:23;;;;;;;3.93;2.70;;;21.80;95.80;;;;;;5019370;28;20457;-58
2023/10/18 00:03:52;;;;;;;4.00;2.43;;;21.80;95.50;;;;;;5018230;28;20458;-59
2023/10/18 00:06:23;;;;;;;1.87;1.70;;;21.80;95.80;;;;;;5019295;28;20656;-59
2023/10/18 00:08:57;;;;;;;2.43;1.93;;;21.80;95.80;;;;;;5019035;28;20458;-59
2023/10/18 00:11:25;;;;;;;2.27;1.83;;;21.70;95.70;;;;;;5016490;28;20460;-59
2023/10/18 00:13:53;;;;;;;3.30;2.00;;;21.70;95.80;;;;;;5015270;28;21088;-62
2023/10/18 00:16:22;;;;;;;4.37;2.40;;;21.70;95.80;;;;;;5015351;28;20475;-59
2023/10/18 00:18:49;;;;;;;4.13;2.10;;;21.70;95.80;;;;;;5016278;28;20497;-61
2023/10/18 00:21:16;;;;;;;2.83;1.83;;;21.70;95.80;;;;;;5016801;28;20561;-59
2023/10/18 00:23:45;;;;;;;2.23;1.83;;;21.70;95.80;;;;;;5015151;28;20904;-58
2023/10/18 00:26:12;;;;;;;2.63;1.87;;;21.70;95.90;;;;;;5013466;28;20489;-59
2023/10/18 00:28:40;;;;;;;2.20;1.80;;;21.70;95.90;;;;;;5017305;28;20466;-57
2023/10/18 00:31:12;;;;;;;2.43;1.70;;;21.70;95.90;;;;;;5016656;28;20450;-59
2023/10/18 00:33:39;;;;;;;2.77;1.90;;;21.70;95.90;;;;;;5016177;28;20453;-58
2023/10/18 00:36:08;;;;;;;2.60;1.70;;;21.70;95.90;;;;;;5016723;28;20829;-58
2023/10/18 00:38:35;;;;;;;2.97;1.70;;;21.70;95.90;;;;;;5018692;28;21350;-62
2023/10/18 00:41:06;;;;;;;2.47;2.07;;;21.70;95.90;;;;;;5017777;28;20468;-59
2023/10/18 00:43:33;;;;;;;2.87;1.87;;;21.70;95.90;;;;;;5015893;28;20560;-58
2023/10/18 00:46:00;;;;;;;3.30;1.70;;;21.60;95.80;;;;;;5016147;28;20611;-58
2023/10/18 00:48:28;;;;;;;2.93;2.40;;;21.60;95.80;;;;;;5018387;28;20462;-59
2023/10/18 00:50:59;;;;;;;3.47;2.20;;;21.60;95.80;;;;;;5016918;28;20474;-60
2023/10/18 00:53:30;;;;;;;3.53;2.10;;;21.60;95.90;;;;;;5016851;28;21204;-59
2023/10/18 00:55:59;;;;;;;3.17;2.20;;;21.60;95.90;;;;;;5016499;28;20472;-59
2023/10/18 00:58:29;;;;;;;2.20;1.80;;;21.60;95.90;;;;;;5015245;28;20495;-59
2023/10/18 01:00:57;;;;;;;2.70;2.10;;;21.60;95.90;;;;;;5017303;28;20647;-60
2023/10/18 01:03:30;;;;;;;2.60;2.00;;;21.60;95.90;;;;;;5032319;22;21532;-53
2023/10/18 01:05:59;;;;;;;2.70;2.10;;;21.50;95.80;;;;;;5007714;28;20477;-54
2023/10/18 01:08:27;;;;;;;2.70;2.03;;;21.50;95.80;;;;;;5015373;28;20464;-52
2023/10/18 01:10:54;;;;;;;3.50;1.60;;;21.50;95.80;;;;;;5016642;28;20530;-54
2023/10/18 01:13:21;;;;;;;2.40;1.90;;;21.50;95.90;;;;;;5012307;28;20512;-54
2023/10/18 01:15:50;;;;;;;2.10;1.63;;;21.50;95.90;;;;;;5016404;28;20550;-55
2023/10/18 01:18:18;;;;;;;2.57;2.00;;;21.50;95.90;;;;;;5016437;28;20457;-53
2023/10/18 01:20:46;;;;;;;2.43;2.23;;;21.50;95.90;;;;;;5013382;28;20554;-56
2023/10/18 01:23:12;;;;;;;2.40;1.60;;;21.50;95.90;;;;;;5015451;28;20466;-53
2023/10/18 01:25:41;;;;;;;2.87;2.40;;;21.50;95.90;;;;;;5013889;28;20477;-53
2023/10/18 01:28:07;;;;;;;3.33;2.13;;;21.50;95.90;;;;;;5010504;28;20461;-53
2023/10/18 01:30:34;;;;;;;2.20;1.90;;;21.50;95.90;;;;;;5010772;28;20446;-55
2023/10/18 01:33:04;;;;;;;2.90;1.63;;;21.50;95.90;;;;;;5015694;28;20464;-56
2023/10/18 01:35:31;;;;;;;2.33;1.70;;;21.50;95.90;;;;;;5015445;28;20468;-55
2023/10/18 01:38:04;;;;;;;2.97;2.20;;;21.50;95.90;;;;;;5014066;28;20463;-52
2023/10/18 01:40:41;;;;;;;2.63;1.87;;;21.50;95.90;;;;;;5016606;28;20466;-53
2023/10/18 01:43:11;;;;;;;2.13;1.50;;;21.50;95.90;;;;;;5013911;28;21230;-54
2023/10/18 01:45:38;;;;;;;2.47;1.90;;;21.50;95.90;;;;;;5015616;28;20474;-55
2023/10/18 01:48:09;;;;;;;3.43;1.93;;;21.40;95.80;;;;;;5015085;28;20591;-53
2023/10/18 01:50:38;;;;;;;2.00;1.57;;;21.40;95.80;;;;;;5017973;28;20464;-55
2023/10/18 01:53:15;;;;;;;3.17;1.90;;;21.40;95.80;;;;;;5017563;28;21013;-54
2023/10/18 01:55:43;;;;;;;2.73;1.93;;;21.40;95.90;;;;;;5018031;28;20481;-55
2023/10/18 01:58:11;;;;;;;3.40;2.07;;;21.40;95.80;;;;;;5013505;28;20494;-56
2023/10/18 02:00:41;;;;;;;2.70;1.70;;;21.40;95.90;;;;;;5016813;28;20450;-55
2023/10/18 02:03:11;;;;;;;3.03;2.00;;;21.40;95.90;;;;;;5015880;28;20947;-57
2023/10/18 02:05:39;;;;;;;2.53;1.60;;;21.40;95.90;;;;;;5012048;28;21185;-54
2023/10/18 02:08:06;;;;;;;2.33;2.03;;;21.40;96.00;;;;;;5012690;28;20490;-54
2023/10/18 02:10:34;;;;;;;2.17;1.50;;;21.40;95.90;;;;;;5012618;28;20531;-54
2023/10/18 02:13:01;;;;;;;2.80;1.43;;;21.40;95.90;;;;;;5012814;28;20465;-56
2023/10/18 02:15:30;;;;;;;2.37;1.50;;;21.40;95.90;;;;;;5014535;28;20653;-53
2023/10/18 02:17:57;;;;;;;2.20;1.70;;;21.40;95.90;;;;;;5014497;28;20585;-56
2023/10/18 02:20:27;;;;;;;3.37;1.90;;;21.40;95.90;;;;;;5013885;28;20863;-54
2023/10/18 02:22:59;;;;;;;2.47;2.10;;;21.40;95.90;;;;;;5016131;28;20458;-57
2023/10/18 02:25:37;;;;;;;2.93;2.17;;;21.40;95.90;;;;;;5014515;28;20498;-54
2023/10/18 02:28:08;;;;;;;3.30;1.70;;;21.40;95.90;;;;;;5012218;28;20475;-55
2023/10/18 02:30:38;;;;;;;3.30;2.10;;;21.40;95.90;;;;;;5010163;28;20480;-54
2023/10/18 02:33:06;;;;;;;2.97;2.10;;;21.40;95.90;;;;;;5015559;28;20462;-54
2023/10/18 02:35:33;;;;;;;2.85;2.55;;;21.30;96.20;;;;;;5015418;28;21982;-55
2023/10/18 02:38:08;;;;;;;2.27;2.07;;;21.30;96.20;;;;;;5014728;28;20199;-52
2023/10/18 02:40:38;;;;;;;3.70;2.17;;;21.30;95.90;;;;;;5012745;28;20524;-56
2023/10/18 02:43:11;;;;;;;4.30;2.20;;;21.30;95.90;;;;;;5015164;28;20468;-55
2023/10/18 02:45:40;;;;;;;2.40;2.00;;;21.30;96.10;;;;;;5016512;28;20472;-53
2023/10/18 02:48:12;;;;;;;3.00;2.37;;;21.30;96.00;;;;;;5014517;28;20569;-55
2023/10/18 02:50:39;;;;;;;3.00;1.67;;;21.30;96.00;;;;;;5018591;28;21229;-56
2023/10/18 02:53:07;;;;;;;1.77;1.47;;;21.30;96.00;;;;;;5016996;28;21597;-55
2023/10/18 02:55:38;;;;;;;2.43;1.80;;;21.30;95.90;;;;;;5017683;28;21009;-54
2023/10/18 02:58:06;;;;;;;2.00;1.80;;;21.30;95.90;;;;;;5012627;28;20460;-54
2023/10/18 03:00:40;;;;;;;2.67;1.93;;;21.30;95.90;;;;;;5013742;28;20938;-54
2023/10/18 03:03:08;;;;;;;3.67;1.77;;;21.30;95.90;;;;;;5014007;28;20480;-52
2023/10/18 03:05:40;;;;;;;2.90;1.80;;;21.30;95.90;;;;;;5011888;28;20565;-53
2023/10/18 03:08:08;;;;;;;1.90;1.70;;;21.30;96.00;;;;;;5014075;28;20492;-55
2023/10/18 03:10:43;;;;;;;2.13;1.80;;;21.30;95.90;;;;;;5015360;28;20580;-55
2023/10/18 03:13:13;;;;;;;3.00;2.00;;;21.30;95.90;;;;;;5012614;28;20446;-54
2023/10/18 03:15:52;;;;;;;1.70;1.53;;;21.30;95.90;;;;;;5014631;28;20529;-52
2023/10/18 03:18:24;;;;;;;2.03;1.83;;;21.30;95.90;;;;;;5014199;28;20988;-56
2023/10/18 03:20:53;;;;;;;2.70;1.80;;;21.30;95.90;;;;;;5015825;28;20625;-54
2023/10/18 03:23:20;;;;;;;2.07;1.70;;;21.30;95.90;;;;;;5012790;28;20853;-54
2023/10/18 03:25:48;;;;;;;2.80;1.90;;;21.30;95.90;;;;;;5015441;28;20486;-55
2023/10/18 03:28:15;;;;;;;3.20;2.20;;;21.20;95.80;;;;;;5015138;28;20476;-54
2023/10/18 03:30:45;;;;;;;2.00;1.60;;;21.30;95.90;;;;;;5013797;28;20463;-54
2023/10/18 03:33:12;;;;;;;2.20;1.47;;;21.30;96.00;;;;;;5017907;28;20469;-55
2023/10/18 03:35:40;;;;;;;2.57;1.90;;;21.30;96.00;;;;;;5018215;28;20981;-54
2023/10/18 03:38:15;;;;;;;1.73;1.37;;;21.30;96.00;;;;;;5019796;28;20575;-55
2023/10/18 03:40:46;;;;;;;2.43;1.67;;;21.30;96.00;;;;;;5021133;28;20456;-55
2023/10/18 03:43:15;;;;;;;2.47;2.23;;;21.30;96.00;;;;;;5017405;28;20586;-52
2023/10/18 03:48:39;;;;;;;2.20;1.47;;;21.20;95.90;;;;;;5001484;28;20827;-51
2023/10/18 03:51:07;;;;;;;2.30;1.93;;;21.20;95.90;;;;;;5020866;28;20507;-55
2023/10/18 03:53:33;;;;;;;1.57;1.33;;;21.20;95.90;;;;;;5021448;28;20465;-54
2023/10/18 03:56:04;;;;;;;3.20;2.03;;;21.20;95.90;;;;;;5021866;28;21354;-54
2023/10/18 03:58:34;;;;;;;2.70;1.90;;;21.20;95.90;;;;;;5014580;28;20457;-54
2023/10/18 04:01:02;;;;;;;3.23;2.00;;;21.20;95.90;;;;;;5019509;28;21028;-56
2023/10/18 04:03:30;;;;;;;2.00;1.40;;;21.20;95.90;;;;;;5017666;28;20671;-52
2023/10/18 04:06:04;;;;;;;1.83;1.70;;;21.20;95.90;;;;;;5019117;28;21445;-54
2023/10/18 04:08:32;;;;;;;2.70;1.50;;;21.20;95.90;;;;;;5021712;28;20466;-54
2023/10/18 04:11:00;;;;;;;1.77;1.50;;;21.20;95.90;;;;;;5018638;28;20461;-53
2023/10/18 04:13:28;;;;;;;2.30;1.90;;;21.20;95.90;;;;;;5013587;28;22212;-53
2023/10/18 04:15:59;;;;;;;2.80;1.90;;;21.20;96.00;;;;;;5014503;28;20958;-54
2023/10/18 04:18:29;;;;;;;2.27;2.03;;;21.20;96.00;;;;;;5017099;28;20458;-52
2023/10/18 04:20:59;;;;;;;2.30;1.67;;;21.20;96.00;;;;;;5015268;28;20460;-53
2023/10/18 04:23:27;;;;;;;1.90;1.73;;;21.20;96.00;;;;;;5018824;28;20344;-54
2023/10/18 04:26:03;;;;;;;2.50;1.80;;;21.20;96.00;;;;;;5020033;28;20572;-52
2023/10/18 04:28:37;;;;;;;1.80;1.55;;;21.20;96.00;;;;;;5018529;28;20993;-51
2023/10/18 04:31:04;;;;;;;3.42;1.65;;;21.20;96.00;;;;;;5017864;28;20732;-51
2023/10/18 04:33:39;;;;;;;1.77;1.63;;;21.10;95.90;;;;;;5018004;28;20219;-53
2023/10/18 04:36:09;;;;;;;2.40;1.60;;;21.10;95.90;;;;;;5014454;28;20458;-53
2023/10/18 04:38:39;;;;;;;1.77;1.50;;;21.20;96.00;;;;;;5018263;28;20976;-51
2023/10/18 04:41:08;;;;;;;3.77;1.73;;;21.10;95.90;;;;;;5017855;28;21048;-51
2023/10/18 04:43:35;;;;;;;3.37;1.93;;;21.10;95.90;;;;;;5017073;28;20462;-51
2023/10/18 04:46:07;;;;;;;3.38;1.70;;;21.10;95.90;;;;;;5017189;28;20554;-54
2023/10/18 04:51:27;;;;;;;2.07;1.87;;;21.10;95.90;;;;;;5015950;28;22505;-55
2023/10/18 04:53:57;;;;;;;1.80;1.63;;;21.10;95.90;;;;;;5016129;28;21008;-51
2023/10/18 04:56:31;;;;;;;2.00;1.80;;;21.20;96.00;;;;;;5019752;28;20551;-52
2023/10/18 04:59:06;;;;;;;1.73;1.60;;;21.10;95.90;;;;;;5018310;28;20963;-55
2023/10/18 05:01:35;;;;;;;1.80;1.70;;;21.10;95.90;;;;;;5016005;28;20464;-52
2023/10/18 05:06:44;;;;;;;2.07;1.40;;;21.10;95.90;;;;;;5018522;28;20473;-52
2023/10/18 05:09:12;;;;;;;2.37;1.90;;;21.10;95.90;;;;;;5020334;28;20471;-56
2023/10/18 05:11:47;;;;;;;1.77;1.43;;;21.10;95.90;;;;;;5017330;28;20463;-55
2023/10/18 05:14:19;;;;;;;2.03;1.83;;;21.10;95.90;;;;;;5013496;28;21110;-50
2023/10/18 05:16:46;;;;;;;1.83;1.30;;;21.10;95.90;;;;;;5018062;28;20647;-54
2023/10/18 05:19:28;;;;;;;1.83;1.63;;;21.10;95.90;;;;;;5017000;28;20456;-55
2023/10/18 05:21:54;;;;;;;2.30;1.60;;;21.10;95.90;;;;;;5016244;28;22491;-54
2023/10/18 05:24:21;;;;;;;1.53;1.37;;;21.10;95.80;;;;;;5016394;28;20212;-54
2023/10/18 05:26:54;;;;;;;1.97;1.67;;;21.10;95.80;;;;;;5018064;28;21032;-55
2023/10/18 05:29:22;;;;;;;1.75;1.33;;;21.10;95.80;;;;;;5014205;28;20455;-52
2023/10/18 05:34:49;;;;;;;1.93;1.43;;;21.10;95.90;;;;;;5015592;28;20880;-55
2023/10/18 05:37:18;;;;;;;1.40;1.30;;;21.10;95.90;;;;;;5014693;28;21694;-56
2023/10/18 05:40:41;;;;;;;1.97;1.80;;;21.10;95.90;;;;;;5017240;28;20563;-54
2023/10/18 05:42:37;;;;;;;2.63;2.10;;;21.10;95.90;;;;;;5018131;28;20962;-53
2023/10/18 05:45:04;;;;;;;1.50;1.30;;;21.10;95.90;;;;;;5018127;28;20461;-53
2023/10/18 05:47:31;;;;;;;1.60;1.30;;;21.10;95.80;;;;;;5016306;28;20224;-55
2023/10/18 05:50:00;;;;;;;1.90;1.70;;;21.10;95.80;;;;;;5018740;28;20457;-56
2023/10/18 05:52:37;;;;;;;1.60;1.45;;;21.10;96.10;;;;;;5014851;28;20306;-55
2023/10/18 05:55:08;;;;;;;1.43;1.00;;;21.10;95.80;;;;;;5016051;28;20206;-55
2023/10/18 05:57:34;;;;;;;1.90;1.20;;;21.10;95.70;;;;;;5017373;28;20473;-56
2023/10/18 06:00:06;;;;;;;1.50;1.40;;;21.10;95.80;;;;;;5015736;28;20474;-53
2023/10/18 06:02:37;;;;;;;1.80;1.47;;;21.10;95.70;;;;;;5013811;28;20457;-55
2023/10/18 06:05:09;;;;;;;1.87;1.67;;;21.10;95.70;;;;;;5013581;28;20516;-55
2023/10/18 06:07:36;;;;;;;1.77;1.50;;;21.10;95.70;;;;;;5014651;28;20463;-54
2023/10/18 06:10:13;;;;;;;2.80;2.07;;;21.10;95.70;;;;;;5014985;28;22294;-55
2023/10/18 06:12:41;;;;;;;2.00;1.60;;;21.10;95.60;;;;;;5014085;28;20462;-54
2023/10/18 06:15:11;;;;;;;1.37;1.20;;;21.10;95.60;;;;;;5014001;28;20748;-54
2023/10/18 06:17:46;;;;;;;2.10;1.90;;;21.10;95.60;;;;;;5015545;28;21079;-56
2023/10/18 06:20:23;;;;;;;1.60;1.50;;;21.10;95.60;;;;;;5009627;28;21034;-55
2023/10/18 06:22:50;;;;;;;2.00;1.42;;;21.10;95.70;;;;;;5017561;28;20457;-56
2023/10/18 06:25:26;;;;;;;2.40;1.85;;;21.10;95.70;;;;;;5016860;28;20203;-54
2023/10/18 06:27:53;;;;;;;1.53;1.37;;;21.10;95.70;;;;;;5015159;28;20214;-54
2023/10/18 06:30:24;;;;;;;1.67;1.20;;;21.10;95.80;;;;;;5012238;28;20508;-56
2023/10/18 06:32:51;;;;;;;1.73;1.63;;;21.20;95.80;;;;;;5015222;28;20208;-52
2023/10/18 06:35:19;;;;;;;1.52;1.23;;;21.10;95.80;;;;;;5014484;28;21039;-55
2023/10/18 06:37:46;;;;;;;1.70;1.45;;;21.20;95.90;;;;;;5017733;28;20204;-53
2023/10/18 06:40:22;;;;;;;1.63;1.50;;;21.20;95.90;;;;;;5017705;28;20215;-55
2023/10/18 06:42:49;;;;;;;1.53;1.23;;;21.20;95.90;;;;;;5013987;28;20980;-55
2023/10/18 06:45:17;;;;;;;1.87;1.60;;;21.20;95.90;;;;;;5013641;28;20459;-52
2023/10/18 06:47:45;;;;;;;1.63;1.47;;;21.20;96.00;;;;;;5015984;28;20515;-53
2023/10/18 06:50:14;;;;;;;1.77;1.67;;;21.20;95.90;;;;;;5015846;28;20461;-55
2023/10/18 06:52:44;;;;;;;2.17;1.53;;;21.20;96.00;;;;;;5016817;28;20470;-55
2023/10/18 06:55:15;;;;;;;2.00;1.50;;;21.20;96.00;;;;;;5014970;28;20466;-55
2023/10/18 06:57:43;;;;;;;1.97;1.40;;;21.20;96.00;;;;;;5017190;28;20588;-51
2023/10/18 07:00:12;;;;;;;1.70;1.40;;;21.20;95.90;;;;;;5013112;28;21158;-55
2023/10/18 07:02:39;;;;;;;1.50;1.40;;;21.20;95.90;;;;;;5017978;28;20547;-53
2023/10/18 07:05:08;;;;;;;1.60;1.30;;;21.20;95.90;;;;;;5021733;28;20552;-52
2023/10/18 07:07:37;;;;;;;2.13;1.50;;;21.20;95.90;;;;;;5021114;28;20577;-56
2023/10/18 07:10:19;;;;;;;2.13;1.57;;;21.20;95.90;;;;;;5019274;28;20467;-53
2023/10/18 07:12:52;;;;;;;2.05;1.70;;;21.20;95.90;;;;;;5020749;28;21666;-52
2023/10/18 07:15:22;;;;;;;3.90;3.50;;;21.20;95.80;;;;;;5021294;28;20368;-56
2023/10/18 07:17:51;;;;;;;6.77;4.67;;;21.30;94.20;;;;;;5017812;28;20458;-58
2023/10/18 07:20:19;;;;;;;6.45;5.85;;;21.10;88.70;;;;;;5015584;28;20457;-53
2023/10/18 07:22:49;;;;;;;6.43;5.80;;;21.00;84.00;;;;;;5021529;28;21028;-56
2023/10/18 07:25:20;;;;;;;7.32;6.63;;;20.80;81.60;;;;;;5021494;28;20552;-55
2023/10/18 07:27:47;;;;;;;6.43;5.72;;;20.70;77.80;;;;;;5018525;28;20239;-59
2023/10/18 07:30:15;;;;;;;7.22;6.43;;;20.50;80.60;;;;;;5009624;28;20647;-52
2023/10/18 07:32:42;;;;;;;7.50;6.70;;;20.50;91.70;;;;;;5015159;28;20329;-53
2023/10/18 07:35:12;;;;;;;5.35;4.32;;;20.40;94.80;;;;;;5017187;28;20772;-51
2023/10/18 07:37:43;;;;;;;6.47;4.28;;;20.50;96.60;;;;;;5019025;28;20341;-53
2023/10/18 07:40:11;;;;;;;9.85;3.72;;;20.50;98.10;;;;;;5018857;28;20211;-53
2023/10/18 07:42:43;;;;;;;5.93;4.25;;;20.60;99.50;;;;;;5021922;28;20207;-53
2023/10/18 07:45:14;;;;;;;3.90;3.50;;;20.60;99.90;;;;;;5017867;28;20566;-51
2023/10/18 07:47:42;;;;;;;3.27;2.80;;;20.70;99.90;;;;;;5021433;28;20703;-52
2023/10/18 07:52:54;;;;;;;3.60;3.03;;;20.70;99.90;;;;;;5017522;28;20454;-52
2023/10/18 07:55:21;;;;;;;4.10;2.50;;;20.70;99.90;;;;;;5017798;28;20461;-55
2023/10/18 07:57:49;;;;;;;5.70;2.42;;;20.90;99.90;;;;;;5020821;28;20210;-53
2023/10/18 08:00:22;;;;;;;4.63;2.77;;;20.90;99.90;;;;;;5014794;28;20325;-53
2023/10/18 08:02:48;;;;;;;4.25;3.88;;;20.80;99.90;;;;;;5018197;28;20467;-52
2023/10/18 08:05:18;;;;;;;3.50;3.20;;;20.80;99.90;;;;;;5019589;28;20199;-53
2023/10/18 08:07:49;;;;;;;2.60;2.38;;;20.90;99.90;;;;;;5018617;28;20473;-54
2023/10/18 08:10:19;;;;;;;2.60;2.30;;;21.00;99.90;;;;;;5015461;28;20192;-51
2023/10/18 08:12:48;;;;;;;4.33;2.43;;;20.80;99.90;;;;;;5019540;28;20202;-54
2023/10/18 08:15:17;;;;;;;4.30;3.28;;;21.00;99.90;;;;;;5017666;28;20505;-55
2023/10/18 08:17:44;;;;;;;6.60;3.42;;;21.00;99.90;;;;;;5018376;28;20206;-54
2023/10/18 08:20:55;;;;;;;3.00;2.70;;;20.90;99.90;;;;;;5017953;28;20195;-54
2023/10/18 08:23:35;;;;;;;3.65;3.45;;;21.10;99.90;;;;;;5017799;28;20455;-54
2023/10/18 08:26:04;;;;;;;3.20;2.92;;;21.10;99.90;;;;;;5015848;28;20979;-55
2023/10/18 08:28:38;;;;;;;4.47;3.30;;;21.00;99.90;;;;;;5013998;28;20243;-51
2023/10/18 08:31:15;;;;;;;4.70;2.30;;;21.10;99.90;;;;;;5016269;28;20485;-52
2023/10/18 08:33:42;;;;;;;2.93;1.90;;;21.10;99.90;;;;;;5017384;28;21372;-54
2023/10/18 08:36:13;;;;;;;3.00;2.47;;;21.00;99.90;;;;;;5016401;28;20470;-53
2023/10/18 08:38:41;;;;;;;2.77;2.57;;;21.00;99.90;;;;;;5014039;28;20492;-53
2023/10/18 08:41:13;;;;;;;2.47;2.28;;;21.10;99.90;;;;;;5011293;28;20465;-60
2023/10/18 08:43:53;;;;;;;2.47;2.27;;;21.00;99.90;;;;;;5018371;28;21226;-57
2023/10/18 08:46:26;;;;;;;2.70;2.50;;;21.10;99.90;;;;;;5016353;28;20470;-58
2023/10/18 08:48:56;;;;;;;2.40;2.20;;;;;;;;;;5019881;28;20487;-57
2023/10/18 08:51:27;;;;;;;2.25;2.05;;;21.10;99.90;;;;;;5014054;28;20574;-57
2023/10/18 08:53:56;;;;;;;2.27;2.10;;;21.10;99.90;;;;;;5017273;28;20219;-54
2023/10/18 08:56:29;;;;;;;2.57;2.20;;;21.20;99.90;;;;;;5017225;28;20512;-53
2023/10/18 08:58:57;;;;;;;3.80;2.60;;;21.10;99.90;;;;;;5018059;28;20462;-55
2023/10/18 09:01:26;;;;;;;3.03;2.37;;;21.20;99.90;;;;;;5017797;28;20493;-54
2023/10/18 09:03:51;;;;;;;5.30;2.10;;;21.20;99.90;;;;;;5019333;28;21267;-55
2023/10/18 09:06:30;;;;;;;2.80;2.27;;;21.30;99.90;;;;;;5014769;28;20451;-53
2023/10/18 09:09:04;;;;;;;2.20;2.00;;;21.30;99.90;;;;;;5016622;28;20211;-54
2023/10/18 09:11:33;;;;;;;2.43;2.00;;;21.20;99.90;;;;;;5016967;28;20826;-54
2023/10/18 09:14:08;;;;;;;2.37;2.07;;;21.30;99.90;;;;;;5019603;28;20663;-54
2023/10/18 09:16:38;;;;;;;3.73;2.20;;;21.20;99.90;;;;;;5012952;28;20924;-55
2023/10/18 09:19:05;;;;;;;1.83;1.70;;;21.40;99.90;;;;;;5020229;28;20551;-55
2023/10/18 09:21:42;;;;;;;2.43;2.00;;;21.30;99.90;;;;;;5019330;28;20471;-54
2023/10/18 09:24:09;;;;;;;2.13;1.80;;;21.40;99.90;;;;;;5018993;28;20654;-56
2023/10/18 09:26:40;;;;;;;2.30;1.93;;;21.40;99.90;;;;;;5017526;28;20501;-52
2023/10/18 09:29:08;;;;;;;3.80;2.90;;;21.30;99.80;;;;;;5017330;28;20645;-53
2023/10/18 09:31:49;;;;;;;2.80;2.03;;;21.40;99.90;;;;;;5023087;28;20458;-54
2023/10/18 09:34:17;;;;;;;3.20;1.90;;;21.40;99.90;;;;;;5021173;28;20850;-54
2023/10/18 09:36:53;;;;;;;2.47;2.03;;;21.40;99.90;;;;;;5012368;28;20467;-55
2023/10/18 09:39:21;;;;;;;1.90;1.80;;;21.50;99.90;;;;;;5014694;28;20457;-54
2023/10/18 09:41:48;;;;;;;2.63;2.20;;;21.40;99.70;;;;;;5017121;28;21511;-55
2023/10/18 09:44:18;;;;;;;2.83;2.47;;;21.50;99.90;;;;;;5018328;28;20987;-52
2023/10/18 09:46:48;;;;;;;2.33;2.10;;;21.60;99.90;;;;;;5017646;28;20454;-55
2023/10/18 09:49:21;;;;;;;2.17;1.60;;;21.50;99.80;;;;;;5019318;28;20483;-55
2023/10/18 09:51:53;;;;;;;2.33;2.13;;;21.60;99.80;;;;;;5015448;28;20493;-53
2023/10/18 09:54:22;;;;;;;3.17;2.50;;;21.50;99.60;;;;;;5020328;28;21100;-55
2023/10/18 09:56:53;;;;;;;2.47;1.70;;;21.60;99.70;;;;;;5018434;28;20501;-56
2023/10/18 09:59:26;;;;;;;4.23;2.00;;;21.60;99.70;;;;;;5018152;28;20508;-55
2023/10/18 10:02:00;;;;;;;2.40;1.80;;;21.50;99.50;;;;;;5018264;28;20570;-53
2023/10/18 10:04:32;;;;;;;1.80;1.60;;;21.60;99.70;;;;;;5019356;28;20491;-55
2023/10/18 10:09:41;;;;;;;2.60;1.63;;;21.60;99.60;;;;;;5012517;28;20449;-53
2023/10/18 10:12:10;;;;;;;2.20;2.00;;;21.60;99.70;;;;;;5018476;28;20461;-54
2023/10/18 10:14:37;;;;;;;2.30;1.87;;;21.60;99.70;;;;;;5015826;28;20473;-53
2023/10/18 10:17:09;;;;;;;2.00;1.90;;;21.60;99.90;;;;;;5014054;28;20454;-57
2023/10/18 10:19:41;;;;;;;1.53;1.43;;;21.60;99.90;;;;;;5017567;28;20454;-54
2023/10/18 10:22:11;;;;;;;2.13;1.93;;;21.60;99.90;;;;;;5017265;28;20500;-54
2023/10/18 10:24:43;;;;;;;2.30;1.97;;;21.60;99.90;;;;;;5012588;28;20454;-60
2023/10/18 10:27:27;;;;;;;2.40;1.97;;;21.60;99.90;;;;;;5012795;28;23375;-59
2023/10/18 10:29:56;;;;;;;7.83;2.43;;;21.60;99.90;;;;;;5012258;28;21432;-58
2023/10/18 10:32:26;;;;;;;2.17;1.50;;;21.60;99.90;;;;;;5011934;28;20465;-61
2023/10/18 10:35:15;;;;;;;1.80;1.70;;;21.70;99.90;;;;;;5020536;28;20579;-60
2023/10/18 10:37:48;;;;;;;2.03;1.77;;;21.80;99.90;;;;;;5021648;28;20463;-58
2023/10/18 10:40:19;;;;;;;2.80;1.67;;;21.80;99.90;;;;;;5017271;28;20466;-56
2023/10/18 10:42:48;;;;;;;2.80;1.50;;;21.70;99.90;;;;;;5018800;28;21095;-59
2023/10/18 10:45:32;;;;;;;1.77;1.67;;;21.90;99.90;;;;;;5014079;28;20661;-59
2023/10/18 10:48:36;;;;;;;2.40;1.63;;;21.80;99.90;;;;;;5022324;28;21360;-57
2023/10/18 10:51:08;;;;;;;1.90;1.70;;;21.80;99.90;;;;;;5019184;28;20462;-59
2023/10/18 10:53:43;;;;;;;2.53;1.70;;;21.80;99.90;;;;;;5018729;28;20469;-62
2023/10/18 10:56:17;;;;;;;2.77;1.80;;;21.90;99.90;;;;;;5012498;28;20462;-62
2023/10/18 10:58:48;;;;;;;1.70;1.60;;;21.80;99.90;;;;;;5018620;28;20473;-58
2023/10/18 11:01:31;;;;;;;2.10;1.60;;;21.80;99.90;;;;;;5018019;28;20482;-59
2023/10/18 11:03:59;;;;;;;4.53;1.90;;;21.80;99.90;;;;;;5021934;28;20465;-58
2023/10/18 11:06:29;;;;;;;1.97;1.53;;;21.90;99.90;;;;;;5016152;28;21032;-61
2023/10/18 11:08:56;;;;;;;2.00;1.83;;;21.90;99.90;;;;;;5019374;28;20524;-61
2023/10/18 11:11:26;;;;;;;1.50;1.30;;;21.90;99.90;;;;;;5019117;28;20458;-59
2023/10/18 11:13:53;;;;;;;3.60;1.50;;;22.00;99.90;;;;;;5018376;28;20488;-59
2023/10/18 11:16:20;;;;;;;1.70;1.50;;;21.90;99.90;;;;;;5013377;28;20457;-58
2023/10/18 11:18:49;;;;;;;10.13;1.70;;;22.00;99.90;;;;;;5019626;28;20557;-57
2023/10/18 11:21:21;;;;;;;1.80;1.60;;;21.90;99.90;;;;;;5021220;28;20544;-56
2023/10/18 11:23:57;;;;;;;3.50;2.20;;;21.90;98.50;;;;;;5018727;28;20469;-59
2023/10/18 11:26:25;;;;;;;1.90;1.50;;;21.90;96.70;;;;;;5014173;28;20463;-56
2023/10/18 11:28:56;;;;;;;2.23;1.87;;;21.90;97.50;;;;;;5017709;28;20490;-54
2023/10/18 11:31:27;;;;;;;2.10;1.90;;;21.90;97.60;;;;;;5020086;28;20472;-57
2023/10/18 11:33:59;;;;;;;1.67;1.57;;;22.00;97.70;;;;;;5021814;28;20464;-59
2023/10/18 11:36:28;;;;;;;2.87;1.67;;;21.90;97.50;;;;;;5018220;28;20469;-56
2023/10/18 11:41:41;;;;;;;2.90;1.83;;;22.00;97.50;;;;;;5022420;28;21512;-56
2023/10/18 11:44:13;;;;;;;1.87;1.63;;;22.00;97.50;;;;;;5020345;28;20801;-58
2023/10/18 11:46:46;;;;;;;2.00;1.77;;;21.90;97.40;;;;;;5021983;28;20461;-62
2023/10/18 11:49:13;;;;;;;2.63;1.60;;;22.10;97.30;;;;;;5022662;28;20482;-58
2023/10/18 11:51:44;;;;;;;2.07;1.40;;;22.10;97.50;;;;;;5021697;28;20458;-56
2023/10/18 11:54:13;;;;;;;1.63;1.53;;;22.10;97.50;;;;;;5019735;28;20467;-56
2023/10/18 11:56:40;;;;;;;1.80;1.60;;;22.10;97.50;;;;;;5017733;28;21094;-56
2023/10/18 11:59:07;;;;;;;2.40;1.77;;;22.10;97.50;;;;;;5019155;28;20458;-53
2023/10/18 12:01:33;;;;;;;1.93;1.67;;;22.10;97.60;;;;;;5019208;28;20461;-58
2023/10/18 12:04:00;;;;;;;2.17;1.70;;;22.10;97.50;;;;;;5015459;28;20469;-54
2023/10/18 12:06:27;;;;;;;1.90;1.50;;;22.20;97.60;;;;;;5014178;28;20464;-57
2023/10/18 12:11:51;;;;;;;2.33;2.03;;;22.20;97.60;;;;;;5018398;28;20464;-56
2023/10/18 12:14:18;;;;;;;3.10;1.80;;;22.20;97.70;;;;;;5017145;28;20507;-55
2023/10/18 12:16:45;;;;;;;1.40;1.30;;;22.20;97.70;;;;;;5020654;28;20584;-55
2023/10/18 12:19:13;;;;;;;1.30;1.20;;;22.20;97.70;;;;;;5019978;28;21443;-55
2023/10/18 12:21:40;;;;;;;1.87;1.70;;;22.20;97.90;;;;;;5019367;28;21022;-58
2023/10/18 12:24:08;;;;;;;1.60;1.50;;;22.30;97.90;;;;;;5018067;28;20464;-58
2023/10/18 12:26:35;;;;;;;1.70;1.60;;;22.20;97.80;;;;;;5019470;28;20536;-57
2023/10/18 12:29:05;;;;;;;1.90;1.70;;;22.40;98.00;;;;;;5000318;28;20504;-57
2023/10/18 12:31:38;;;;;;;2.17;1.53;;;22.30;97.80;;;;;;5016499;28;20568;-56
2023/10/18 12:34:05;;;;;;;2.67;1.80;;;22.30;97.80;;;;;;5016757;28;20827;-55
2023/10/18 12:36:37;;;;;;;2.70;1.27;;;22.30;97.80;;;;;;5014658;28;20454;-52
2023/10/18 12:39:09;;;;;;;2.00;1.80;;;22.40;97.70;;;;;;5019065;28;20473;-55
2023/10/18 12:41:39;;;;;;;2.00;1.50;;;22.40;97.20;;;;;;5018721;28;20968;-53
2023/10/18 12:44:10;;;;;;;1.40;1.30;;;22.40;97.40;;;;;;5018152;28;20495;-59
2023/10/18 12:46:37;;;;;;;2.80;1.67;;;22.30;97.50;;;;;;5019378;28;20536;-57
2023/10/18 12:49:05;;;;;;;1.50;1.40;;;22.30;97.50;;;;;;5016704;28;20587;-54
2023/10/18 12:51:40;;;;;;;3.40;1.40;;;22.40;97.50;;;;;;5018123;28;20489;-51
2023/10/18 12:54:08;;;;;;;1.97;1.87;;;22.40;97.40;;;;;;5019437;28;21182;-56
2023/10/18 12:56:40;;;;;;;1.80;1.70;;;22.40;97.50;;;;;;5016852;28;21260;-55
2023/10/18 12:59:22;;;;;;;1.93;1.73;;;22.30;97.40;;;;;;5019362;28;20473;-52
2023/10/18 13:01:49;;;;;;;1.83;1.70;;;22.50;97.50;;;;;;5016241;28;20591;-56
2023/10/18 13:04:18;;;;;;;3.87;2.27;;;22.40;97.40;;;;;;5017091;28;20466;-54
2023/10/18 13:06:46;;;;;;;3.20;1.93;;;22.50;97.40;;;;;;5013169;28;20823;-54
2023/10/18 13:09:19;;;;;;;2.87;1.90;;;22.50;97.40;;;;;;5014637;28;20480;-55
2023/10/18 13:12:07;;;;;;;1.70;1.50;;;22.40;97.30;;;;;;5018413;28;20450;-55
2023/10/18 13:14:35;;;;;;;2.40;1.50;;;22.40;97.20;;;;;;5014826;28;20506;-55
2023/10/18 13:17:03;;;;;;;2.33;1.57;;;22.40;97.20;;;;;;5018047;28;20458;-54
2023/10/18 13:19:30;;;;;;;1.73;1.63;;;22.40;97.20;;;;;;5019829;28;20600;-55
2023/10/18 13:21:57;;;;;;;2.30;1.43;;;22.40;97.00;;;;;;5017883;28;20536;-54
2023/10/18 13:24:31;;;;;;;1.77;1.67;;;22.50;97.00;;;;;;5019285;28;20875;-53
2023/10/18 13:27:03;;;;;;;1.87;1.77;;;22.50;96.80;;;;;;5014376;28;20454;-56